createdAt,value
2019-04-05T00:01:07.634Z,15.27
2019-04-05T00:03:37.500Z,15.77
2019-04-05T00:06:07.325Z,14.97
2019-04-05T00:08:37.169Z,16.20
2019-04-05T00:11:07.171Z,16.03
2019-04-05T00:13:37.124Z,15.37
2019-04-05T00:16:07.448Z,16.60
2019-04-05T00:18:37.368Z,16.33
2019-04-05T00:21:07.367Z,17.03
2019-04-05T00:23:37.256Z,17.13
2019-04-05T00:26:07.247Z,18.20
2019-04-05T00:28:37.291Z,16.60
2019-04-05T00:31:07.172Z,17.37
2019-04-05T00:33:37.082Z,17.63
2019-04-05T00:36:07.039Z,16.30
2019-04-05T00:38:37.058Z,17.17
2019-04-05T00:41:07.014Z,17.17
2019-04-05T00:43:37.030Z,17.57
2019-04-05T00:46:06.970Z,19.07
2019-04-05T00:48:36.795Z,17.30
2019-04-05T00:51:06.616Z,17.60
2019-04-05T00:53:36.599Z,20.73
2019-04-05T00:56:06.415Z,19.87
2019-04-05T00:58:36.260Z,20.40
2019-04-05T01:01:06.189Z,20.40
2019-04-05T01:03:36.124Z,19.43
2019-04-05T01:06:05.976Z,19.17
2019-04-05T01:08:35.796Z,19.10
2019-04-05T01:11:05.827Z,22.00
2019-04-05T01:13:35.820Z,20.90
2019-04-05T01:16:05.731Z,21.83
2019-04-05T01:18:35.619Z,21.27
2019-04-05T01:21:05.701Z,20.03
2019-04-05T01:23:35.920Z,21.10
2019-04-05T01:26:06.194Z,20.43
2019-04-05T01:28:36.288Z,21.70
2019-04-05T01:31:06.338Z,22.20
2019-04-05T01:33:36.258Z,20.10
2019-04-05T01:36:06.105Z,20.17
2019-04-05T01:38:35.980Z,20.43
2019-04-05T01:41:05.885Z,19.43
2019-04-05T01:43:35.716Z,19.77
2019-04-05T01:46:05.631Z,18.20
2019-04-05T01:48:35.639Z,18.53
2019-04-05T01:51:06.251Z,18.43
2019-04-05T01:53:36.439Z,17.93
2019-04-05T01:56:06.317Z,19.33
2019-04-05T01:58:36.209Z,21.87
2019-04-05T02:01:06.120Z,18.90
2019-04-05T02:03:35.968Z,18.27
2019-04-05T02:06:05.899Z,18.07
2019-04-05T02:08:36.365Z,19.00
2019-04-05T02:11:06.493Z,18.40
2019-04-05T02:13:36.371Z,19.00
2019-04-05T02:16:06.995Z,17.70
2019-04-05T02:18:37.030Z,17.10
2019-04-05T02:21:07.018Z,17.33
2019-04-05T02:23:36.875Z,16.77
2019-04-05T02:26:06.792Z,16.73
2019-04-05T02:28:36.724Z,17.17
2019-04-05T02:31:06.604Z,16.13
2019-04-05T02:33:36.595Z,16.87
2019-04-05T02:36:06.623Z,16.63
2019-04-05T02:38:36.500Z,16.40
2019-04-05T02:41:06.804Z,16.90
2019-04-05T02:43:38.640Z,17.47
2019-04-05T02:46:22.754Z,17.07
2019-04-05T02:48:44.309Z,16.23
2019-04-05T02:51:17.164Z,16.10
2019-04-05T02:53:48.542Z,16.97
2019-04-05T02:56:18.937Z,16.67
2019-04-05T02:58:49.388Z,16.80
2019-04-05T03:01:22.596Z,17.10
2019-04-05T03:03:51.055Z,17.33
2019-04-05T03:06:21.201Z,18.70
2019-04-05T03:08:51.764Z,18.43
2019-04-05T03:11:24.579Z,19.03
2019-04-05T03:13:57.494Z,18.83
2019-04-05T03:16:40.145Z,19.40
2019-04-05T03:19:04.775Z,20.80
2019-04-05T03:21:37.417Z,21.60
2019-04-05T03:24:10.063Z,20.40
2019-04-05T03:26:42.811Z,20.33
2019-04-05T03:29:13.056Z,22.00
2019-04-05T03:31:42.956Z,20.77
2019-04-05T03:34:14.293Z,22.33
2019-04-05T03:36:44.105Z,21.43
2019-04-05T03:39:14.017Z,20.63
2019-04-05T03:41:43.945Z,22.20
2019-04-05T03:44:14.636Z,23.10
2019-04-05T03:46:56.176Z,21.33
2019-04-05T03:49:16.017Z,19.97
2019-04-05T03:51:45.829Z,19.73
2019-04-05T03:54:15.756Z,19.03
2019-04-05T03:56:45.707Z,20.93
2019-04-05T03:59:15.739Z,20.70
2019-04-05T04:01:45.719Z,19.43
2019-04-05T04:04:15.739Z,19.57
2019-04-05T04:06:45.885Z,20.27
2019-04-05T04:09:15.781Z,20.03
2019-04-05T04:11:45.804Z,19.23
2019-04-05T04:14:15.848Z,19.97
2019-04-05T04:16:45.828Z,18.93
2019-04-05T04:19:15.747Z,19.00
2019-04-05T04:21:54.472Z,18.73
2019-04-05T04:24:24.591Z,18.97
2019-04-05T04:26:54.534Z,19.10
2019-04-05T04:29:24.353Z,20.00
2019-04-05T04:31:54.205Z,18.87
2019-04-05T04:34:24.147Z,19.33
2019-04-05T04:36:54.188Z,19.30
2019-04-05T04:39:24.126Z,19.17
2019-04-05T04:41:54.373Z,20.47
2019-04-05T04:44:24.189Z,20.50
2019-04-05T04:46:54.437Z,20.03
2019-04-05T04:49:24.368Z,18.87
2019-04-05T04:51:54.659Z,19.97
2019-04-05T04:54:24.843Z,20.40
2019-04-05T04:56:54.786Z,20.57
2019-04-05T04:59:24.803Z,21.77
2019-04-05T05:01:54.874Z,21.47
2019-04-05T05:04:24.859Z,20.50
2019-04-05T05:06:54.899Z,20.33
2019-04-05T05:09:24.952Z,22.90
2019-04-05T05:11:54.932Z,22.67
2019-04-05T05:14:25.353Z,23.00
2019-04-05T05:16:55.287Z,21.23
2019-04-05T05:19:25.109Z,21.87
2019-04-05T05:21:55.080Z,18.93
2019-04-05T05:24:25.161Z,19.33
2019-04-05T05:26:55.122Z,19.07
2019-04-05T05:29:25.199Z,18.87
2019-04-05T05:31:55.248Z,18.50
2019-04-05T05:34:25.346Z,19.43
2019-04-05T05:36:55.400Z,17.57
2019-04-05T05:39:25.422Z,18.93
2019-04-05T05:41:55.264Z,19.20
2019-04-05T05:44:25.152Z,18.77
2019-04-05T05:46:55.232Z,21.43
2019-04-05T05:49:25.126Z,18.93
2019-04-05T05:51:54.987Z,20.03
2019-04-05T05:54:24.887Z,18.33
2019-04-05T05:56:54.920Z,18.70
2019-04-05T05:59:24.940Z,18.63
2019-04-05T06:01:54.836Z,19.10
2019-04-05T06:04:24.689Z,19.77
2019-04-05T06:06:54.525Z,18.43
2019-04-05T06:09:24.515Z,18.70
2019-04-05T06:11:54.421Z,19.23
2019-04-05T06:14:24.367Z,17.80
2019-04-05T06:16:54.276Z,18.53
2019-04-05T06:19:24.206Z,18.57
2019-04-05T06:21:54.122Z,18.63
2019-04-05T06:24:24.242Z,17.57
2019-04-05T06:26:54.104Z,18.13
2019-04-05T06:29:24.054Z,19.10
2019-04-05T06:31:55.434Z,17.60
2019-04-05T06:34:25.376Z,18.13
2019-04-05T06:36:55.295Z,19.97
2019-04-05T06:39:25.146Z,17.48
2019-04-05T06:41:55.108Z,18.33
2019-04-05T06:44:27.857Z,18.35
2019-04-05T06:46:56.792Z,18.27
2019-04-05T06:49:26.737Z,18.55
2019-04-05T06:51:56.599Z,17.53
2019-04-05T06:54:29.515Z,18.80
2019-04-05T06:56:59.540Z,19.30
2019-04-05T06:59:29.451Z,18.75
2019-04-05T07:01:59.352Z,19.52
2019-04-05T07:04:31.025Z,19.30
2019-04-05T07:07:00.976Z,18.98
2019-04-05T07:09:33.845Z,18.67
2019-04-05T07:12:02.546Z,19.70
2019-04-05T07:14:32.622Z,18.80
2019-04-05T07:17:03.384Z,19.05
2019-04-05T07:19:33.203Z,19.02
2019-04-05T07:22:03.352Z,20.10
2019-04-05T07:24:38.182Z,19.60
2019-04-05T07:27:08.165Z,18.57
2019-04-05T07:29:38.160Z,19.92
2019-04-05T07:32:08.200Z,20.48
2019-04-05T07:34:38.027Z,19.50
2019-04-05T07:37:08.093Z,20.12
2019-04-05T07:39:37.921Z,19.07
2019-04-05T07:42:09.539Z,19.50
2019-04-05T07:44:40.021Z,19.48
2019-04-05T07:47:11.298Z,19.85
2019-04-05T07:49:41.316Z,20.00
2019-04-05T07:52:13.242Z,20.05
2019-04-05T07:54:43.006Z,20.02
2019-04-05T07:57:13.750Z,19.48
2019-04-05T07:59:43.669Z,19.98
2019-04-05T08:02:13.524Z,20.17
2019-04-05T08:04:43.965Z,19.52
2019-04-05T08:07:15.010Z,20.02
2019-04-05T08:09:44.928Z,20.62
2019-04-05T08:12:14.815Z,20.50
2019-04-05T08:14:45.359Z,20.40
2019-04-05T08:17:16.634Z,20.23
2019-04-05T08:19:46.576Z,21.10
2019-04-05T08:22:16.413Z,20.70
2019-04-05T08:24:46.464Z,21.23
2019-04-05T08:27:18.297Z,21.17
2019-04-05T08:29:48.275Z,21.17
2019-04-05T08:32:18.377Z,21.27
2019-04-05T08:34:48.429Z,20.45
2019-04-05T08:37:18.424Z,21.07
2019-04-05T08:39:48.856Z,21.87
2019-04-05T08:42:18.751Z,22.02
2019-04-05T08:44:48.810Z,22.07
2019-04-05T08:47:18.740Z,23.00
2019-04-05T08:49:48.802Z,21.65
2019-04-05T08:52:18.863Z,21.15
2019-04-05T08:54:48.739Z,21.93
2019-04-05T08:57:18.779Z,21.12
2019-04-05T08:59:48.627Z,21.52
2019-04-05T09:02:18.658Z,22.05
2019-04-05T09:04:48.561Z,20.45
2019-04-05T09:07:18.517Z,23.40
2019-04-05T09:09:48.511Z,23.15
2019-04-05T09:12:18.404Z,26.85
2019-04-05T09:14:48.332Z,22.20
2019-04-05T09:17:18.204Z,21.90
2019-04-05T09:19:48.212Z,22.13
2019-04-05T09:22:18.278Z,24.55
2019-04-05T09:24:48.190Z,23.55
2019-04-05T09:27:18.076Z,21.73
2019-04-05T09:29:47.964Z,22.10
2019-04-05T09:32:17.797Z,25.17
2019-04-05T09:34:47.847Z,23.35
2019-04-05T09:37:17.755Z,23.92
2019-04-05T09:39:47.642Z,22.93
2019-04-05T09:42:17.579Z,23.73
2019-04-05T09:44:47.409Z,25.72
2019-04-05T09:47:17.467Z,23.52
2019-04-05T09:49:47.403Z,23.40
2019-04-05T09:52:17.474Z,25.10
2019-04-05T09:54:47.376Z,23.98
2019-04-05T09:57:17.303Z,23.57
2019-04-05T09:59:47.282Z,22.40
2019-04-05T10:02:17.100Z,22.80
2019-04-05T10:04:47.020Z,22.05
2019-04-05T10:07:16.925Z,22.22
2019-04-05T10:09:46.811Z,23.25
2019-04-05T10:12:16.812Z,21.52
2019-04-05T10:14:46.728Z,21.50
2019-04-05T10:17:16.675Z,20.85
2019-04-05T10:19:50.061Z,21.75
2019-04-05T10:22:17.971Z,21.42
2019-04-05T10:24:47.995Z,20.48
2019-04-05T10:27:18.062Z,21.90
2019-04-05T10:29:49.464Z,22.50
2019-04-05T10:32:19.843Z,21.27
2019-04-05T10:34:49.740Z,20.32
2019-04-05T10:37:19.652Z,19.98
2019-04-05T10:39:49.483Z,19.95
2019-04-05T10:42:33.620Z,21.02
2019-04-05T10:45:03.674Z,20.92
2019-04-05T10:47:33.632Z,21.73
2019-04-05T10:50:04.472Z,21.17
2019-04-05T10:52:34.371Z,21.07
2019-04-05T10:55:05.004Z,19.87
2019-04-05T10:57:34.832Z,20.52
2019-04-05T11:00:08.135Z,22.48
2019-04-05T11:02:37.964Z,19.55
2019-04-05T11:05:08.082Z,21.35
2019-04-05T11:07:37.992Z,20.40
2019-04-05T11:10:09.127Z,20.37
2019-04-05T11:12:39.175Z,19.77
2019-04-05T11:15:09.544Z,20.43
2019-04-05T11:17:42.257Z,20.37
2019-04-05T11:20:21.093Z,22.35
2019-04-05T11:22:46.393Z,19.45
2019-04-05T11:25:15.050Z,19.67
2019-04-05T11:27:44.999Z,19.57
2019-04-05T11:30:16.602Z,19.52
2019-04-05T11:32:47.008Z,20.27
2019-04-05T11:35:16.956Z,19.30
2019-04-05T11:37:49.902Z,20.32
2019-04-05T11:40:18.511Z,19.50
2019-04-05T11:42:49.589Z,19.42
2019-04-05T11:45:19.591Z,20.00
2019-04-05T11:47:53.470Z,19.60
2019-04-05T11:50:33.840Z,20.43
2019-04-05T11:52:53.880Z,19.37
2019-04-05T11:55:23.993Z,19.48
2019-04-05T11:57:54.866Z,20.88
2019-04-05T12:00:42.674Z,19.10
2019-04-05T12:03:14.480Z,19.77
2019-04-05T12:05:44.444Z,18.95
2019-04-05T12:08:14.329Z,18.90
2019-04-05T12:10:44.327Z,19.55
2019-04-05T12:13:14.613Z,19.12
2019-04-05T12:15:44.511Z,18.55
2019-04-05T12:18:17.884Z,19.00
2019-04-05T12:20:52.103Z,19.32
2019-04-05T12:23:17.706Z,19.82
2019-04-05T12:25:47.708Z,19.30
2019-04-05T12:28:17.700Z,19.02
2019-04-05T12:30:49.960Z,19.10
2019-04-05T12:33:20.458Z,19.02
2019-04-05T12:35:52.562Z,19.77
2019-04-05T12:38:32.446Z,18.62
2019-04-05T12:41:03.268Z,19.15
2019-04-05T12:43:33.675Z,19.32
2019-04-05T12:46:04.288Z,19.02
2019-04-05T12:48:34.158Z,18.77
2019-04-05T12:51:05.562Z,19.02
2019-04-05T12:53:35.619Z,19.10
2019-04-05T12:56:06.003Z,18.95
2019-04-05T12:58:36.078Z,19.10
2019-04-05T13:01:08.334Z,20.72
2019-04-05T13:03:37.700Z,19.05
2019-04-05T13:06:07.716Z,19.95
2019-04-05T13:08:38.109Z,19.95
2019-04-05T13:11:08.024Z,18.90
2019-04-05T13:13:40.685Z,19.27
2019-04-05T13:16:10.961Z,19.40
2019-04-05T13:18:40.859Z,19.70
2019-04-05T13:21:15.066Z,18.87
2019-04-05T13:23:42.376Z,18.95
2019-04-05T13:26:12.614Z,18.98
2019-04-05T13:28:42.747Z,18.12
2019-04-05T13:31:12.695Z,18.35
2019-04-05T13:33:42.528Z,17.85
2019-04-05T13:36:12.478Z,19.37
2019-04-05T13:38:54.296Z,18.75
2019-04-05T13:41:14.136Z,18.45
2019-04-05T13:43:44.144Z,18.05
2019-04-05T13:46:21.792Z,18.80
2019-04-05T13:48:45.619Z,18.90
2019-04-05T13:51:27.206Z,19.02
2019-04-05T13:53:47.234Z,18.95
2019-04-05T13:56:17.156Z,18.98
2019-04-05T13:58:47.116Z,19.80
2019-04-05T14:01:20.633Z,18.80
2019-04-05T14:03:50.332Z,18.75
2019-04-05T14:06:20.699Z,18.57
2019-04-05T14:08:50.599Z,19.77
2019-04-05T14:11:20.594Z,19.12
2019-04-05T14:13:50.405Z,19.77
2019-04-05T14:16:20.506Z,18.75
2019-04-05T14:18:50.499Z,19.95
2019-04-05T14:21:22.232Z,19.52
2019-04-05T14:23:53.296Z,19.65
2019-04-05T14:26:23.996Z,18.67
2019-04-05T14:28:53.886Z,18.37
2019-04-05T14:31:23.876Z,19.67
2019-04-05T14:33:54.787Z,19.10
2019-04-05T14:36:26.380Z,18.77
2019-04-05T14:38:56.357Z,18.82
2019-04-05T14:41:26.348Z,18.45
2019-04-05T14:43:56.204Z,18.95
2019-04-05T14:46:28.474Z,19.12
2019-04-05T14:49:00.376Z,18.60
2019-04-05T14:51:29.364Z,19.95
2019-04-05T14:54:01.439Z,18.48
2019-04-05T14:56:30.774Z,19.82
2019-04-05T14:59:00.664Z,19.00
2019-04-05T15:01:30.709Z,19.60
2019-04-05T15:04:00.536Z,21.05
2019-04-05T15:06:31.032Z,19.85
2019-04-05T15:09:02.130Z,19.77
2019-04-05T15:11:32.147Z,21.23
2019-04-05T15:14:02.096Z,21.02
2019-04-05T15:16:32.100Z,20.57
2019-04-05T15:19:02.039Z,20.20
2019-04-05T15:21:34.585Z,19.82
2019-04-05T15:24:03.489Z,20.92
2019-04-05T15:26:33.434Z,20.97
2019-04-05T15:29:03.424Z,21.45
2019-04-05T15:31:33.327Z,19.65
2019-04-05T15:34:03.449Z,19.42
2019-04-05T15:36:33.350Z,19.65
2019-04-05T15:39:03.399Z,20.32
2019-04-05T15:41:33.210Z,20.75
2019-04-05T15:44:05.360Z,20.37
2019-04-05T15:46:34.884Z,19.80
2019-04-05T15:49:04.936Z,19.98
2019-04-05T15:51:34.768Z,20.35
2019-04-05T15:54:04.755Z,19.70
2019-04-05T15:56:34.652Z,20.50
2019-04-05T15:59:04.899Z,20.00
2019-04-05T16:01:35.010Z,20.23
2019-04-05T16:04:04.940Z,19.98
2019-04-05T16:06:34.843Z,20.80
2019-04-05T16:09:07.971Z,20.02
2019-04-05T16:11:37.871Z,21.23
2019-04-05T16:14:07.707Z,22.07
2019-04-05T16:16:37.756Z,21.12
2019-04-05T16:19:07.650Z,21.68
2019-04-05T16:21:37.600Z,21.90
2019-04-05T16:24:07.613Z,22.70
2019-04-05T16:26:37.537Z,23.00
2019-04-05T16:29:07.464Z,24.05
2019-04-05T16:31:37.324Z,23.55
2019-04-05T16:34:07.174Z,22.67
2019-04-05T16:36:36.996Z,23.38
2019-04-05T16:39:09.502Z,22.85
2019-04-05T16:41:39.430Z,20.92
2019-04-05T16:44:09.282Z,22.87
2019-04-05T16:46:39.267Z,22.17
2019-04-05T16:49:09.192Z,23.77
2019-04-05T16:51:39.008Z,23.10
2019-04-05T16:54:08.898Z,23.67
2019-04-05T16:56:38.779Z,25.15
2019-04-05T16:59:08.614Z,26.05
2019-04-05T17:01:38.571Z,31.57
2019-04-05T17:04:08.496Z,55.33
2019-04-05T17:06:38.421Z,48.63
2019-04-05T17:09:09.225Z,43.30
2019-04-05T17:11:39.271Z,40.25
2019-04-05T17:14:09.326Z,42.58
2019-04-05T17:16:39.287Z,42.08
2019-04-05T17:19:09.223Z,41.13
2019-04-05T17:21:39.100Z,32.67
2019-04-05T17:24:08.992Z,28.85
2019-04-05T17:26:39.070Z,35.35
2019-04-05T17:29:09.142Z,34.67
2019-04-05T17:31:39.187Z,37.78
2019-04-05T17:34:09.345Z,26.35
2019-04-05T17:36:39.394Z,28.85
2019-04-05T17:39:09.526Z,28.85
2019-04-05T17:41:39.463Z,28.00
2019-04-05T17:44:09.415Z,26.23
2019-04-05T17:46:39.246Z,28.85
2019-04-05T17:49:09.113Z,28.62
2019-04-05T17:51:39.007Z,30.05
2019-04-05T17:54:08.924Z,31.35
2019-04-05T17:56:39.158Z,35.17
2019-04-05T17:59:09.574Z,38.25
2019-04-05T18:01:39.508Z,39.75
2019-04-05T18:04:09.331Z,39.40
2019-04-05T18:06:39.303Z,37.80
2019-04-05T18:09:09.218Z,37.83
2019-04-05T18:11:39.123Z,37.78
2019-04-05T18:14:09.021Z,39.40
2019-04-05T18:16:39.431Z,36.50
2019-04-05T18:19:09.448Z,36.30
2019-04-05T18:21:39.409Z,36.25
2019-04-05T18:24:17.129Z,41.63
2019-04-05T18:26:47.355Z,41.90
2019-04-05T18:29:18.645Z,37.23
2019-04-05T18:31:49.608Z,39.95
2019-04-05T18:34:19.543Z,45.80
2019-04-05T18:36:49.802Z,48.85
2019-04-05T18:39:19.706Z,42.90
2019-04-05T18:41:49.792Z,39.88
2019-04-05T18:44:19.615Z,39.83
2019-04-05T18:46:49.534Z,43.45
2019-04-05T18:49:20.509Z,43.13
2019-04-05T18:51:50.684Z,48.58
2019-04-05T18:54:20.508Z,46.70
2019-04-05T18:56:50.444Z,50.08
2019-04-05T18:59:20.417Z,54.85
2019-04-05T19:01:53.322Z,54.80
2019-04-05T19:04:23.712Z,49.48
2019-04-05T19:06:53.854Z,42.58
2019-04-05T19:09:23.886Z,37.35
2019-04-05T19:11:53.896Z,39.70
2019-04-05T19:14:23.939Z,33.73
2019-04-05T19:16:53.882Z,38.38
2019-04-05T19:19:24.002Z,34.65
2019-04-05T19:21:54.129Z,35.90
2019-04-05T19:24:25.818Z,44.18
2019-04-05T19:26:55.697Z,35.92
2019-04-05T19:29:27.101Z,40.33
2019-04-05T19:49:38.736Z,33.95
2019-04-05T19:52:09.223Z,35.17
2019-04-05T19:54:39.286Z,36.20
2019-04-05T19:57:09.291Z,30.67
2019-04-05T19:59:39.347Z,29.97
2019-04-05T20:02:09.254Z,28.63
2019-04-05T20:04:39.324Z,28.70
2019-04-05T20:07:09.332Z,28.17
2019-04-05T20:09:39.426Z,29.63
2019-04-05T20:12:09.769Z,26.83
2019-04-05T20:14:39.832Z,26.17
2019-04-05T20:17:09.756Z,25.30
2019-04-05T20:19:39.791Z,24.20
2019-04-05T20:22:09.820Z,24.37
2019-04-05T20:24:39.795Z,25.73
2019-04-05T20:27:09.768Z,25.25
2019-04-05T20:29:39.741Z,24.30
2019-04-05T20:32:09.751Z,25.07
2019-04-05T20:34:39.743Z,25.13
2019-04-05T20:37:09.852Z,26.90
2019-04-05T20:39:40.179Z,25.10
2019-04-05T20:42:10.245Z,26.30
2019-04-05T20:44:40.140Z,24.87
2019-04-05T20:47:10.156Z,25.13
2019-04-05T20:49:40.163Z,27.70
2019-04-05T20:52:10.243Z,26.33
2019-04-05T20:54:40.645Z,23.77
2019-04-05T20:57:10.728Z,24.57
2019-04-05T20:59:41.704Z,23.37
2019-04-05T21:02:11.769Z,24.00
2019-04-05T21:04:41.757Z,22.83
2019-04-05T21:07:11.823Z,22.73
2019-04-05T21:09:43.718Z,25.07
2019-04-05T21:12:16.680Z,24.77
2019-04-05T21:14:46.808Z,29.13
2019-04-05T21:17:16.803Z,24.07
2019-04-05T21:19:47.393Z,35.80
2019-04-05T21:22:17.444Z,38.63
2019-04-05T21:24:47.491Z,28.87
2019-04-05T21:27:18.829Z,36.07
2019-04-05T21:29:48.896Z,34.90
2019-04-05T21:32:18.965Z,29.87
2019-04-05T21:34:48.871Z,22.17
2019-04-05T21:37:18.907Z,25.73
2019-04-05T21:39:49.189Z,30.97
2019-04-05T21:42:19.272Z,34.07
2019-04-05T21:44:49.195Z,24.77
2019-04-05T21:47:19.255Z,23.10
2019-04-05T21:49:49.143Z,21.60
2019-04-05T21:52:19.122Z,22.93
2019-04-05T21:54:49.042Z,22.93
2019-04-05T21:57:18.924Z,21.93
2019-04-05T21:59:48.946Z,23.30
2019-04-05T22:02:18.853Z,21.00
2019-04-05T22:04:48.829Z,21.70
2019-04-05T22:07:18.862Z,22.83
2019-04-05T22:09:48.963Z,22.00
2019-04-05T22:12:18.918Z,22.07
2019-04-05T22:14:48.866Z,22.10
2019-04-05T22:17:18.894Z,22.93
2019-04-05T22:19:48.772Z,21.67
2019-04-05T22:22:18.717Z,20.97
2019-04-05T22:24:58.765Z,20.87
2019-04-05T22:27:20.846Z,20.83
2019-04-05T22:29:51.045Z,20.47
2019-04-05T22:32:20.932Z,21.30
2019-04-05T22:34:50.947Z,21.43
2019-04-05T22:37:20.836Z,21.30
2019-04-05T22:39:50.695Z,20.40
2019-04-05T22:42:20.584Z,20.83
2019-04-05T22:44:50.572Z,19.60
2019-04-05T22:47:20.468Z,19.67
2019-04-05T22:49:50.416Z,19.57
2019-04-05T22:52:20.315Z,19.83
2019-04-05T22:54:50.263Z,20.40
2019-04-05T22:57:20.259Z,19.47
2019-04-05T22:59:50.311Z,18.70
2019-04-05T23:02:20.134Z,18.83
2019-04-05T23:04:50.205Z,19.33
2019-04-05T23:07:20.188Z,18.43
2019-04-05T23:09:50.060Z,18.57
2019-04-05T23:12:19.979Z,18.80
2019-04-05T23:14:49.897Z,17.90
2019-04-05T23:17:19.779Z,17.77
2019-04-05T23:19:49.643Z,17.00
2019-04-05T23:22:19.471Z,17.77
2019-04-05T23:24:49.440Z,17.90
2019-04-05T23:27:19.439Z,18.20
2019-04-05T23:29:49.325Z,18.23
2019-04-05T23:32:19.317Z,18.17
2019-04-05T23:34:49.205Z,17.30
2019-04-05T23:37:19.107Z,17.13
2019-04-05T23:39:49.163Z,17.20
2019-04-05T23:42:19.189Z,18.10
2019-04-05T23:44:49.151Z,18.53
2019-04-05T23:47:19.041Z,18.47
2019-04-05T23:49:49.007Z,17.37
2019-04-05T23:52:18.927Z,16.90
2019-04-05T23:54:48.902Z,17.67
2019-04-05T23:57:18.732Z,17.83
2019-04-05T23:59:48.626Z,17.50
